Time;durP1;ratioP1;P1;durP2;ratioP2;P2;SDS_P1;SDS_P2;PMS_P1;PMS_P2;Temp;Humidity;BMP_temperature;BMP_pressure;BME280_temperature;BME280_humidity;BME280_pressure;Samples;Min_cycle;Max_cycle;Signal;HPM_P1;HPM_P2
2024/03/31 00:00:30;;;;;;;;;;;;;;;24.16;33.46;97796.99;68018;1275;1016488;-63
2024/03/31 00:03:53;;;;;;;;;;;;;;;24.08;33.58;97796.59;68002;1275;1016052;-61
2024/03/31 00:06:55;;;;;;;;;;;;;;;24.07;33.72;97801.33;68052;1275;1016368;-65
2024/03/31 00:09:57;;;;;;;;;;;;;;;24.13;33.65;97797.21;68029;1275;1016151;-65
2024/03/31 00:12:59;;;;;;;;;;;;;;;24.10;33.68;97793.33;68030;1275;1016328;-62
2024/03/31 00:16:02;;;;;;;;;;;;;;;24.03;33.94;97791.91;68037;1275;1016335;-61
2024/03/31 00:19:04;;;;;;;;;;;;;;;24.01;33.86;97784.52;68046;1275;1019823;-64
2024/03/31 00:22:06;;;;;;;;;;;;;;;24.01;33.92;97781.58;67981;1275;1016405;-65
2024/03/31 00:25:09;;;;;;;;;;;;;;;23.99;33.96;97778.28;68025;1275;1019412;-66
2024/03/31 00:28:11;;;;;;;;;;;;;;;23.93;34.20;97772.55;68027;1275;1016394;-62
2024/03/31 00:31:13;;;;;;;;;;;;;;;23.96;34.01;97769.91;68017;1275;1016273;-66
2024/03/31 00:34:16;;;;;;;;;;;;;;;23.97;33.89;97769.05;68064;1275;1017935;-61
2024/03/31 00:37:18;;;;;;;;;;;;;;;24.15;33.71;97768.68;68047;1275;1016027;-65
2024/03/31 00:40:20;;;;;;;;;;;;;;;24.15;33.69;97767.29;68022;1275;1016343;-65
2024/03/31 00:43:23;;;;;;;;;;;;;;;24.01;33.94;97764.15;67999;1275;1016485;-65
2024/03/31 00:46:25;;;;;;;;;;;;;;;24.04;34.04;97761.64;68061;1275;1017258;-62
2024/03/31 00:49:27;;;;;;;;;;;;;;;24.11;33.70;97761.52;68065;1275;1016390;-61
2024/03/31 00:52:30;;;;;;;;;;;;;;;24.15;33.84;97758.10;68042;1275;1016089;-64
2024/03/31 00:55:32;;;;;;;;;;;;;;;24.22;33.58;97756.65;68049;1275;1015860;-65
2024/03/31 00:58:35;;;;;;;;;;;;;;;24.23;33.60;97751.90;68011;1275;1016210;-64
2024/03/31 01:01:37;;;;;;;;;;;;;;;24.21;33.71;97748.58;68013;1275;1016247;-65
2024/03/31 01:04:40;;;;;;;;;;;;;;;24.16;33.83;97743.23;67960;1275;1016151;-65
2024/03/31 01:07:42;;;;;;;;;;;;;;;24.21;33.61;97740.98;67946;1275;1016524;-66
2024/03/31 01:10:44;;;;;;;;;;;;;;;24.17;33.94;97740.24;68034;1275;1016451;-66
2024/03/31 01:13:47;;;;;;;;;;;;;;;24.20;33.70;97735.76;68031;1275;1016485;-63
2024/03/31 01:16:49;;;;;;;;;;;;;;;24.18;33.80;97728.21;67929;1275;1016114;-66
2024/03/31 01:19:51;;;;;;;;;;;;;;;24.15;33.80;97724.34;68027;1275;1016054;-65
2024/03/31 01:22:53;;;;;;;;;;;;;;;24.09;33.93;97720.40;68053;1275;1016263;-66
2024/03/31 01:25:56;;;;;;;;;;;;;;;23.93;34.12;97720.88;68063;1275;1016225;-61
2024/03/31 01:28:58;;;;;;;;;;;;;;;23.80;34.30;97719.34;68030;1275;1015985;-63
2024/03/31 01:32:00;;;;;;;;;;;;;;;23.74;34.44;97722.84;68048;1275;1016142;-61
2024/03/31 01:35:03;;;;;;;;;;;;;;;23.63;34.58;97725.33;67998;1275;1016436;-65
2024/03/31 01:38:05;;;;;;;;;;;;;;;23.51;34.74;97721.20;68035;1275;1018398;-62
2024/03/31 01:41:07;;;;;;;;;;;;;;;23.54;34.76;97720.67;67995;1275;1016436;-66
2024/03/31 01:44:09;;;;;;;;;;;;;;;23.57;34.59;97718.33;68025;1275;1015950;-65
2024/03/31 01:47:12;;;;;;;;;;;;;;;23.63;34.66;97723.06;68068;1275;1015949;-66
2024/03/31 01:50:14;;;;;;;;;;;;;;;23.61;34.63;97723.73;68057;1275;1016370;-66
2024/03/31 01:53:16;;;;;;;;;;;;;;;23.51;34.64;97725.52;68044;1275;1016416;-61
2024/03/31 01:56:19;;;;;;;;;;;;;;;23.51;34.65;97728.73;68048;1275;1017497;-65
2024/03/31 01:59:21;;;;;;;;;;;;;;;23.53;34.73;97723.65;67978;1275;1016762;-66
2024/03/31 02:02:23;;;;;;;;;;;;;;;23.58;34.58;97724.52;68014;1275;1016511;-66
2024/03/31 02:05:25;;;;;;;;;;;;;;;23.64;34.64;97722.05;68007;1275;1016504;-63
2024/03/31 02:08:28;;;;;;;;;;;;;;;23.57;34.76;97717.67;67954;1275;1016377;-64
2024/03/31 02:11:30;;;;;;;;;;;;;;;23.60;34.62;97713.56;67904;1275;1016231;-66
2024/03/31 02:14:33;;;;;;;;;;;;;;;23.51;34.73;97708.74;68071;1275;1016232;-66
2024/03/31 02:17:35;;;;;;;;;;;;;;;23.52;34.76;97706.38;68016;1275;1016215;-66
2024/03/31 02:20:37;;;;;;;;;;;;;;;23.47;34.74;97707.90;67985;1275;1016356;-65
2024/03/31 02:23:40;;;;;;;;;;;;;;;23.34;34.87;97705.73;67982;1275;1020069;-66
2024/03/31 02:26:42;;;;;;;;;;;;;;;23.35;34.96;97702.53;68023;1275;1016333;-66
2024/03/31 02:29:44;;;;;;;;;;;;;;;23.16;35.27;97700.72;68029;1275;1016741;-66
2024/03/31 02:32:47;;;;;;;;;;;;;;;23.12;35.36;97695.52;68058;1275;1016343;-63
2024/03/31 02:35:49;;;;;;;;;;;;;;;23.04;35.49;97694.20;67999;1275;1016046;-61
2024/03/31 02:38:51;;;;;;;;;;;;;;;23.02;35.54;97691.27;68025;1275;1016315;-66
2024/03/31 02:41:54;;;;;;;;;;;;;;;23.00;35.61;97697.84;68009;1275;1016126;-66
2024/03/31 02:44:56;;;;;;;;;;;;;;;22.83;35.84;97700.88;67989;1275;1016442;-64
2024/03/31 02:47:58;;;;;;;;;;;;;;;22.78;35.87;97698.67;68003;1275;1016395;-66
2024/03/31 02:51:01;;;;;;;;;;;;;;;22.82;35.87;97700.86;68028;1275;1016447;-66
2024/03/31 02:54:03;;;;;;;;;;;;;;;23.04;35.54;97696.70;68044;1275;1016482;-62
2024/03/31 02:57:05;;;;;;;;;;;;;;;22.95;35.67;97692.31;68052;1275;1016323;-64
2024/03/31 03:00:09;;;;;;;;;;;;;;;23.00;35.63;97690.11;67972;1275;1017298;-61
2024/03/31 03:03:11;;;;;;;;;;;;;;;23.02;35.65;97686.00;68018;1275;1016484;-66
2024/03/31 03:06:13;;;;;;;;;;;;;;;23.05;35.61;97687.37;68041;1275;1018498;-66
2024/03/31 03:09:16;;;;;;;;;;;;;;;23.01;35.65;97690.52;67983;1275;1016467;-66
2024/03/31 03:12:18;;;;;;;;;;;;;;;22.92;35.82;97686.59;68019;1275;1016319;-65
2024/03/31 03:15:20;;;;;;;;;;;;;;;22.87;35.82;97686.48;67945;1275;1016318;-66
2024/03/31 03:18:25;;;;;;;;;;;;;;;22.87;35.95;97683.45;68042;1275;1016101;-66
2024/03/31 03:21:27;;;;;;;;;;;;;;;22.85;35.94;97683.23;68074;1275;1018588;-60
2024/03/31 03:24:30;;;;;;;;;;;;;;;22.98;35.75;97682.41;68003;1275;1015745;-66
2024/03/31 03:27:32;;;;;;;;;;;;;;;22.94;35.86;97684.50;67997;1275;1016443;-66
2024/03/31 03:30:34;;;;;;;;;;;;;;;22.87;35.89;97681.84;67993;1275;1016167;-67
2024/03/31 03:33:37;;;;;;;;;;;;;;;22.82;35.89;97683.05;68019;1275;1016239;-63
2024/03/31 03:36:39;;;;;;;;;;;;;;;22.85;35.92;97685.82;68004;1275;1017348;-62
2024/03/31 03:39:41;;;;;;;;;;;;;;;22.90;35.90;97680.41;67856;1275;1016018;-66
2024/03/31 03:42:44;;;;;;;;;;;;;;;22.89;35.93;97679.21;68063;1275;1016327;-66
2024/03/31 03:45:46;;;;;;;;;;;;;;;22.82;36.04;97682.14;68044;1275;1016079;-66
2024/03/31 03:48:48;;;;;;;;;;;;;;;22.90;35.97;97678.77;67928;1275;1016363;-60
2024/03/31 03:51:52;;;;;;;;;;;;;;;22.94;35.88;97677.88;68002;1275;1016481;-66
2024/03/31 03:54:54;;;;;;;;;;;;;;;22.65;36.34;97682.13;68053;1275;1016427;-66
2024/03/31 03:57:56;;;;;;;;;;;;;;;22.79;36.11;97679.46;68030;1275;1016085;-66
2024/03/31 04:00:59;;;;;;;;;;;;;;;22.86;35.97;97673.36;67997;1275;1016188;-65
2024/03/31 04:04:01;;;;;;;;;;;;;;;22.72;36.23;97670.81;68001;1275;1016743;-62
2024/03/31 04:07:03;;;;;;;;;;;;;;;22.74;36.14;97679.69;68005;1275;1016144;-67
2024/03/31 04:10:06;;;;;;;;;;;;;;;22.68;36.26;97681.93;68043;1275;1018264;-61
2024/03/31 04:13:08;;;;;;;;;;;;;;;22.70;36.19;97673.14;67946;1275;1015792;-61
2024/03/31 04:16:10;;;;;;;;;;;;;;;22.62;36.28;97672.98;67859;1275;1018510;-66
2024/03/31 04:19:12;;;;;;;;;;;;;;;22.57;36.42;97676.05;67998;1275;1016105;-61
2024/03/31 04:22:15;;;;;;;;;;;;;;;22.76;36.20;97671.32;68010;1275;1016206;-61
2024/03/31 04:25:17;;;;;;;;;;;;;;;22.81;36.21;97666.98;67973;1275;1020495;-62
2024/03/31 04:28:19;;;;;;;;;;;;;;;22.73;36.30;97670.15;68011;1275;1016754;-65
2024/03/31 04:31:22;;;;;;;;;;;;;;;22.66;36.51;97671.64;68056;1275;1016434;-66
2024/03/31 04:34:25;;;;;;;;;;;;;;;22.69;36.50;97680.37;68036;1275;1016025;-66
2024/03/31 04:37:27;;;;;;;;;;;;;;;22.72;36.47;97683.92;67983;1275;1016435;-62
2024/03/31 04:40:30;;;;;;;;;;;;;;;22.71;36.66;97676.11;67938;1275;1016494;-61
2024/03/31 04:43:32;;;;;;;;;;;;;;;22.72;36.52;97677.92;68056;1275;1016875;-66
2024/03/31 04:46:35;;;;;;;;;;;;;;;22.55;36.68;97676.48;68010;1275;1016312;-64
2024/03/31 04:49:37;;;;;;;;;;;;;;;22.69;36.64;97678.36;68003;1275;1016246;-64
2024/03/31 04:52:39;;;;;;;;;;;;;;;22.64;36.70;97678.59;68013;1275;1015970;-65
2024/03/31 04:55:42;;;;;;;;;;;;;;;22.73;36.62;97680.19;68011;1275;1018849;-60
2024/03/31 04:58:44;;;;;;;;;;;;;;;22.91;36.39;97676.89;68050;1275;1015935;-64
2024/03/31 05:01:46;;;;;;;;;;;;;;;22.96;36.30;97673.77;68024;1275;1016244;-66
2024/03/31 05:04:48;;;;;;;;;;;;;;;22.97;36.28;97669.45;68047;1275;1016433;-61
2024/03/31 05:07:51;;;;;;;;;;;;;;;23.12;36.14;97670.55;68044;1275;1016465;-66
2024/03/31 05:10:53;;;;;;;;;;;;;;;23.18;36.10;97670.41;68007;1275;1016136;-66
2024/03/31 05:13:55;;;;;;;;;;;;;;;23.34;35.89;97670.71;68002;1275;1016477;-66
2024/03/31 05:16:58;;;;;;;;;;;;;;;23.40;35.81;97668.78;67983;1275;1016400;-63
2024/03/31 05:20:00;;;;;;;;;;;;;;;23.23;36.09;97671.86;67979;1275;1016578;-65
2024/03/31 05:23:02;;;;;;;;;;;;;;;23.31;35.99;97671.38;68033;1275;1016333;-67
2024/03/31 05:26:05;;;;;;;;;;;;;;;23.27;35.88;97669.88;68038;1275;1019286;-66
2024/03/31 05:29:07;;;;;;;;;;;;;;;23.33;36.03;97670.71;68072;1275;1016340;-61
2024/03/31 05:32:09;;;;;;;;;;;;;;;23.41;36.07;97674.97;68025;1275;1016940;-61
2024/03/31 05:35:11;;;;;;;;;;;;;;;23.68;35.59;97672.30;68010;1275;1016488;-66
2024/03/31 05:38:14;;;;;;;;;;;;;;;23.76;35.68;97670.58;68001;1275;1016281;-66
2024/03/31 05:41:16;;;;;;;;;;;;;;;23.89;35.42;97666.88;67891;1275;1016321;-66
2024/03/31 05:44:18;;;;;;;;;;;;;;;23.97;35.77;97668.75;68011;1275;1016484;-64
2024/03/31 05:47:20;;;;;;;;;;;;;;;24.11;35.46;97666.87;67979;1275;1016279;-62
2024/03/31 05:50:23;;;;;;;;;;;;;;;24.14;35.34;97664.35;68044;1275;1017696;-66
2024/03/31 05:53:25;;;;;;;;;;;;;;;24.14;35.52;97664.64;68025;1275;1016365;-65
2024/03/31 05:56:28;;;;;;;;;;;;;;;24.17;35.44;97664.51;68004;1275;1015920;-66
2024/03/31 05:59:30;;;;;;;;;;;;;;;24.24;35.34;97669.08;68000;1275;1016410;-64
2024/03/31 06:02:32;;;;;;;;;;;;;;;24.43;35.06;97663.29;65441;1275;5377308;-65
2024/03/31 06:05:34;;;;;;;;;;;;;;;24.39;35.27;97658.98;67919;1275;1016448;-66
2024/03/31 06:08:37;;;;;;;;;;;;;;;24.49;35.11;97659.40;67997;1275;1016376;-66
2024/03/31 06:11:39;;;;;;;;;;;;;;;24.54;35.18;97657.89;67886;1275;1018113;-62
2024/03/31 06:14:41;;;;;;;;;;;;;;;24.76;34.90;97659.27;68025;1275;1016457;-63
2024/03/31 06:17:44;;;;;;;;;;;;;;;24.68;35.11;97658.11;68004;1275;1016409;-65
2024/03/31 06:20:46;;;;;;;;;;;;;;;24.84;34.89;97656.44;67985;1275;1016097;-65
2024/03/31 06:23:49;;;;;;;;;;;;;;;25.05;34.91;97654.91;67964;1275;1016524;-64
2024/03/31 06:26:51;;;;;;;;;;;;;;;25.07;34.91;97651.48;67987;1275;1016880;-65
2024/03/31 06:29:53;;;;;;;;;;;;;;;25.15;34.78;97648.77;68031;1275;1016037;-66
2024/03/31 06:32:56;;;;;;;;;;;;;;;25.28;34.89;97642.11;68016;1275;1016123;-66
2024/03/31 06:35:58;;;;;;;;;;;;;;;25.47;34.59;97642.70;67982;1275;1018048;-66
2024/03/31 06:39:01;;;;;;;;;;;;;;;25.58;34.66;97637.54;67992;1275;1016167;-66
2024/03/31 06:42:03;;;;;;;;;;;;;;;25.56;34.72;97638.17;67985;1275;1020497;-65
2024/03/31 06:45:06;;;;;;;;;;;;;;;25.79;34.47;97627.48;68029;1275;1016480;-66
2024/03/31 06:48:08;;;;;;;;;;;;;;;25.80;34.59;97627.92;68030;1275;1016087;-65
2024/03/31 06:51:10;;;;;;;;;;;;;;;26.02;34.24;97625.52;67968;1275;1016059;-61
2024/03/31 06:54:13;;;;;;;;;;;;;;;26.15;34.21;97624.84;67993;1275;1016462;-65
2024/03/31 06:57:15;;;;;;;;;;;;;;;26.32;33.88;97620.83;68008;1275;1016471;-66
2024/03/31 07:00:18;;;;;;;;;;;;;;;26.44;33.89;97616.42;68026;1275;1016533;-66
2024/03/31 07:03:20;;;;;;;;;;;;;;;26.65;33.91;97615.02;68058;1275;1016261;-64
2024/03/31 07:06:23;;;;;;;;;;;;;;;26.94;33.62;97612.33;67972;1275;1015937;-65
2024/03/31 07:09:25;;;;;;;;;;;;;;;27.27;33.58;97603.98;68023;1275;1015973;-66
2024/03/31 07:12:28;;;;;;;;;;;;;;;27.76;33.02;97605.59;68027;1275;1016869;-66
2024/03/31 07:15:30;;;;;;;;;;;;;;;28.30;32.56;97596.99;67967;1275;1017666;-61
2024/03/31 07:18:32;;;;;;;;;;;;;;;28.79;32.29;97599.04;67971;1275;1016213;-65
2024/03/31 07:21:34;;;;;;;;;;;;;;;29.11;31.64;97600.60;67998;1275;1016276;-65
2024/03/31 07:24:37;;;;;;;;;;;;;;;29.30;30.97;97597.98;67987;1275;1016675;-65
2024/03/31 07:27:39;;;;;;;;;;;;;;;29.24;30.69;97593.21;67958;1275;1016190;-64
2024/03/31 07:30:41;;;;;;;;;;;;;;;29.10;30.54;97588.48;67995;1275;1016206;-65
2024/03/31 07:33:44;;;;;;;;;;;;;;;29.17;30.55;97587.89;67994;1275;1016423;-65
2024/03/31 07:36:46;;;;;;;;;;;;;;;29.34;30.51;97581.77;67963;1275;1016436;-66
2024/03/31 07:39:48;;;;;;;;;;;;;;;29.60;30.51;97578.84;68012;1275;1016276;-66
2024/03/31 07:42:51;;;;;;;;;;;;;;;30.04;29.95;97574.61;68000;1275;1016887;-65
2024/03/31 07:45:53;;;;;;;;;;;;;;;30.34;29.71;97580.07;67998;1275;1016382;-66
2024/03/31 07:48:56;;;;;;;;;;;;;;;30.44;29.18;97580.05;67995;1275;1016423;-63
2024/03/31 07:51:59;;;;;;;;;;;;;;;30.71;28.89;97572.35;67991;1275;1016481;-65
2024/03/31 07:55:01;;;;;;;;;;;;;;;30.83;28.72;97567.50;68007;1275;1016152;-64
2024/03/31 07:58:05;;;;;;;;;;;;;;;31.10;28.49;97565.84;68024;1275;1018325;-65
2024/03/31 08:01:07;;;;;;;;;;;;;;;31.23;28.21;97564.95;67985;1275;1015922;-63
2024/03/31 08:04:10;;;;;;;;;;;;;;;31.31;28.08;97557.28;67994;1275;1016452;-65
2024/03/31 08:07:12;;;;;;;;;;;;;;;31.32;28.08;97552.35;67974;1275;1020013;-64
2024/03/31 08:10:14;;;;;;;;;;;;;;;31.42;28.07;97555.73;68005;1275;1016457;-65
2024/03/31 08:13:17;;;;;;;;;;;;;;;31.49;27.52;97557.35;67984;1275;1016424;-62
2024/03/31 08:16:19;;;;;;;;;;;;;;;31.43;27.43;97554.89;68013;1275;1016452;-65
2024/03/31 08:19:22;;;;;;;;;;;;;;;31.68;27.09;97556.98;68035;1275;1016945;-62
2024/03/31 08:22:24;;;;;;;;;;;;;;;31.83;27.69;97560.36;68008;1275;1016464;-65
2024/03/31 08:25:26;;;;;;;;;;;;;;;31.70;26.11;97558.50;67997;1275;1016385;-62
2024/03/31 08:28:29;;;;;;;;;;;;;;;31.93;26.00;97553.86;68009;1275;1016262;-65
2024/03/31 08:31:31;;;;;;;;;;;;;;;32.09;25.33;97558.61;68025;1275;1016468;-62
2024/03/31 08:34:33;;;;;;;;;;;;;;;32.08;24.78;97562.02;67936;1275;1015720;-62
2024/03/31 08:37:36;;;;;;;;;;;;;;;32.11;24.43;97553.80;68032;1275;1016038;-65
2024/03/31 08:40:39;;;;;;;;;;;;;;;32.09;23.60;97548.20;68017;1275;1016915;-65
2024/03/31 08:43:42;;;;;;;;;;;;;;;32.12;23.51;97545.84;68038;1275;1016472;-64
2024/03/31 08:46:44;;;;;;;;;;;;;;;32.17;23.35;97536.70;67964;1275;1016194;-65
2024/03/31 08:49:47;;;;;;;;;;;;;;;31.84;22.58;97534.23;68030;1275;1016714;-65
2024/03/31 08:52:50;;;;;;;;;;;;;;;31.95;22.82;97528.77;68044;1275;1017763;-65
2024/03/31 08:55:52;;;;;;;;;;;;;;;32.05;22.81;97525.94;68003;1275;1016742;-63
2024/03/31 08:58:56;;;;;;;;;;;;;;;32.23;21.94;97516.17;67987;1275;1016635;-65
2024/03/31 09:01:58;;;;;;;;;;;;;;;32.32;22.08;97512.18;67991;1275;1015690;-65
2024/03/31 09:05:00;;;;;;;;;;;;;;;32.24;21.70;97503.04;68001;1275;1016903;-63
2024/03/31 09:08:03;;;;;;;;;;;;;;;32.19;21.55;97505.05;68011;1275;1016682;-65
2024/03/31 09:11:05;;;;;;;;;;;;;;;32.10;21.44;97504.33;68028;1275;1016480;-62
2024/03/31 09:14:07;;;;;;;;;;;;;;;32.27;21.28;97505.55;68012;1275;1016505;-63
2024/03/31 09:17:10;;;;;;;;;;;;;;;32.72;21.51;97508.96;68048;1275;1016832;-65
2024/03/31 09:20:12;;;;;;;;;;;;;;;32.90;20.91;97506.17;68016;1275;1016223;-65
2024/03/31 09:23:14;;;;;;;;;;;;;;;32.85;20.87;97510.95;67973;1275;1016326;-65
2024/03/31 09:26:17;;;;;;;;;;;;;;;32.97;21.15;97520.52;68016;1275;1016443;-65
2024/03/31 09:29:19;;;;;;;;;;;;;;;33.11;20.85;97526.27;68069;1275;1018644;-65
2024/03/31 09:32:22;;;;;;;;;;;;;;;32.66;21.08;97523.45;68046;1275;1016508;-63
2024/03/31 09:35:24;;;;;;;;;;;;;;;32.57;21.39;97523.92;67981;1275;1016137;-62
2024/03/31 09:38:27;;;;;;;;;;;;;;;32.71;21.34;97525.14;67959;1275;1016343;-65
2024/03/31 09:41:29;;;;;;;;;;;;;;;32.84;21.18;97515.13;68034;1275;1016304;-66
2024/03/31 09:44:31;;;;;;;;;;;;;;;33.18;20.64;97516.05;68036;1275;1016857;-63
2024/03/31 09:47:33;;;;;;;;;;;;;;;33.06;20.48;97517.09;68025;1275;1016886;-64
2024/03/31 09:50:37;;;;;;;;;;;;;;;32.97;20.66;97516.29;68045;1275;1016606;-64
2024/03/31 09:53:40;;;;;;;;;;;;;;;32.99;20.94;97521.44;68027;1275;1016397;-64
2024/03/31 09:56:43;;;;;;;;;;;;;;;32.74;20.59;97515.59;68033;1275;1016468;-63
2024/03/31 09:59:46;;;;;;;;;;;;;;;32.74;21.09;97531.77;68015;1275;1016441;-65
2024/03/31 10:02:48;;;;;;;;;;;;;;;32.58;20.71;97538.23;67962;1275;1016861;-62
2024/03/31 10:05:51;;;;;;;;;;;;;;;32.26;20.59;97535.90;67895;1272;1018880;-62
2024/03/31 10:08:53;;;;;;;;;;;;;;;31.93;20.82;97529.95;67844;1276;1016364;-61
2024/03/31 10:11:55;;;;;;;;;;;;;;;31.92;21.07;97522.30;67831;1276;1016457;-64
2024/03/31 10:14:57;;;;;;;;;;;;;;;32.04;21.17;97520.02;67976;1276;1016316;-64
2024/03/31 10:17:59;;;;;;;;;;;;;;;32.14;21.01;97513.91;67965;1276;1016057;-64
2024/03/31 10:21:02;;;;;;;;;;;;;;;32.18;20.90;97516.54;67966;1276;1016432;-64
2024/03/31 10:24:04;;;;;;;;;;;;;;;32.14;20.98;97511.95;67796;1276;1018686;-61
2024/03/31 10:27:06;;;;;;;;;;;;;;;32.22;21.07;97513.08;67769;1276;1018743;-64
2024/03/31 10:30:08;;;;;;;;;;;;;;;32.42;21.25;97522.41;67829;1276;1016129;-61
2024/03/31 10:33:11;;;;;;;;;;;;;;;32.52;21.13;97522.33;67863;1276;1016161;-62
2024/03/31 10:36:13;;;;;;;;;;;;;;;32.60;20.96;97519.13;67902;1276;1016442;-61
2024/03/31 10:39:15;;;;;;;;;;;;;;;32.36;20.86;97526.63;67932;1276;1016317;-64
2024/03/31 10:42:18;;;;;;;;;;;;;;;32.20;20.89;97528.79;67964;1276;1019220;-64
2024/03/31 10:45:20;;;;;;;;;;;;;;;32.01;20.97;97528.27;67952;1276;1016440;-64
2024/03/31 10:48:22;;;;;;;;;;;;;;;32.05;21.39;97524.36;67965;1276;1016437;-63
2024/03/31 10:51:24;;;;;;;;;;;;;;;32.25;20.65;97526.48;67916;1276;1016315;-63
2024/03/31 10:54:27;;;;;;;;;;;;;;;32.33;20.76;97521.08;67887;1276;1016569;-64
2024/03/31 10:57:29;;;;;;;;;;;;;;;32.56;20.86;97517.39;67886;1276;1015982;-64
2024/03/31 11:00:31;;;;;;;;;;;;;;;32.90;20.39;97505.25;67920;1276;1016506;-62
2024/03/31 11:03:34;;;;;;;;;;;;;;;32.95;19.78;97505.09;67923;1276;1016642;-64
2024/03/31 11:06:36;;;;;;;;;;;;;;;33.00;19.79;97507.70;67928;1276;1016428;-63
2024/03/31 11:09:38;;;;;;;;;;;;;;;33.02;19.42;97506.88;67948;1276;1019880;-63
2024/03/31 11:12:41;;;;;;;;;;;;;;;33.04;19.61;97508.14;67946;1276;1018707;-65
2024/03/31 11:15:43;;;;;;;;;;;;;;;33.04;19.39;97503.18;67952;1276;1016531;-64
2024/03/31 11:18:45;;;;;;;;;;;;;;;32.70;19.49;97495.77;67895;1276;1015606;-64
2024/03/31 11:21:48;;;;;;;;;;;;;;;32.51;19.69;97494.05;67926;1276;1016204;-64
2024/03/31 11:24:50;;;;;;;;;;;;;;;32.15;19.58;97492.80;67913;1276;1018106;-65
2024/03/31 11:27:52;;;;;;;;;;;;;;;32.15;19.48;97485.38;67935;1276;1016424;-62
2024/03/31 11:30:55;;;;;;;;;;;;;;;32.74;19.67;97480.30;67886;1276;1016444;-65
2024/03/31 11:33:57;;;;;;;;;;;;;;;33.21;19.27;97473.15;67946;1276;1016397;-64
2024/03/31 11:36:59;;;;;;;;;;;;;;;33.57;19.12;97465.59;67956;1276;1016502;-64
2024/03/31 11:40:02;;;;;;;;;;;;;;;33.72;18.64;97469.91;67932;1276;1016269;-65
2024/03/31 11:43:04;;;;;;;;;;;;;;;33.86;18.59;97472.81;67911;1276;1016425;-64
2024/03/31 11:46:06;;;;;;;;;;;;;;;34.04;18.95;97479.48;67932;1276;1018999;-64
2024/03/31 11:49:08;;;;;;;;;;;;;;;34.36;18.63;97485.65;67950;1276;1016624;-64
2024/03/31 11:52:11;;;;;;;;;;;;;;;34.28;18.83;97486.94;67933;1276;1016218;-63
2024/03/31 11:55:13;;;;;;;;;;;;;;;34.10;18.54;97483.59;67946;1276;1016609;-62
2024/03/31 11:58:15;;;;;;;;;;;;;;;34.15;18.75;97480.40;67939;1276;1016491;-64
2024/03/31 12:01:18;;;;;;;;;;;;;;;34.31;18.59;97463.79;67887;1276;1016490;-64
2024/03/31 12:04:21;;;;;;;;;;;;;;;34.50;18.87;97465.16;67949;1276;1016407;-64
2024/03/31 12:07:23;;;;;;;;;;;;;;;34.41;18.67;97467.94;67948;1276;1016401;-62
2024/03/31 12:10:25;;;;;;;;;;;;;;;34.35;18.64;97468.73;67963;1276;1016651;-64
2024/03/31 12:13:28;;;;;;;;;;;;;;;34.00;18.47;97458.29;67929;1276;1016399;-65
2024/03/31 12:16:30;;;;;;;;;;;;;;;34.18;18.87;97451.67;67898;1276;1017201;-64
2024/03/31 12:19:33;;;;;;;;;;;;;;;34.27;18.62;97439.98;67944;1276;1016149;-62
2024/03/31 12:22:35;;;;;;;;;;;;;;;34.40;18.38;97440.84;67934;1276;1016331;-63
2024/03/31 12:25:37;;;;;;;;;;;;;;;34.55;18.56;97437.56;67961;1276;1016504;-63
2024/03/31 12:28:39;;;;;;;;;;;;;;;34.75;18.89;97427.95;67902;1276;1016513;-65
2024/03/31 12:31:42;;;;;;;;;;;;;;;34.51;19.06;97423.61;67863;1276;1016627;-64
2024/03/31 12:34:44;;;;;;;;;;;;;;;34.35;18.22;97418.88;67868;1276;1016510;-64
2024/03/31 12:37:46;;;;;;;;;;;;;;;34.16;18.48;97427.69;67877;1276;1016791;-63
2024/03/31 12:40:49;;;;;;;;;;;;;;;34.24;18.73;97429.22;67951;1276;1016417;-63
2024/03/31 12:43:51;;;;;;;;;;;;;;;34.42;18.72;97429.45;67940;1276;1019310;-65
2024/03/31 12:46:53;;;;;;;;;;;;;;;34.66;17.96;97440.81;67892;1276;1016075;-64
2024/03/31 12:49:56;;;;;;;;;;;;;;;34.22;18.29;97446.64;67763;1278;1016531;-64
2024/03/31 12:52:58;;;;;;;;;;;;;;;33.97;18.83;97446.01;67769;1278;1016568;-64
2024/03/31 12:56:00;;;;;;;;;;;;;;;34.05;18.77;97446.58;67817;1278;1016760;-64
2024/03/31 12:59:03;;;;;;;;;;;;;;;33.99;18.40;97439.09;67861;1278;1018964;-61
2024/03/31 13:02:05;;;;;;;;;;;;;;;34.28;18.62;97446.06;67855;1278;1016392;-64
2024/03/31 13:05:08;;;;;;;;;;;;;;;34.16;18.61;97445.09;67799;1278;1016496;-63
2024/03/31 13:08:11;;;;;;;;;;;;;;;33.98;18.03;97440.99;67801;1278;1016437;-63
2024/03/31 13:11:14;;;;;;;;;;;;;;;33.69;18.83;97442.63;67827;1278;1016471;-61
2024/03/31 13:14:16;;;;;;;;;;;;;;;33.53;18.71;97442.79;67800;1278;1016410;-63
2024/03/31 13:17:19;;;;;;;;;;;;;;;33.56;18.62;97437.13;67822;1278;1018077;-64
2024/03/31 13:20:21;;;;;;;;;;;;;;;33.44;18.98;97445.25;67821;1278;1016621;-64
2024/03/31 13:23:25;;;;;;;;;;;;;;;33.47;19.06;97446.16;67827;1278;1016376;-64
2024/03/31 13:26:27;;;;;;;;;;;;;;;33.53;19.02;97442.45;67837;1278;1015963;-64
2024/03/31 13:29:30;;;;;;;;;;;;;;;33.43;18.96;97441.71;67860;1278;1016326;-64
2024/03/31 13:32:32;;;;;;;;;;;;;;;33.13;19.43;97445.73;67813;1278;1016334;-63
2024/03/31 13:35:34;;;;;;;;;;;;;;;33.04;19.80;97451.82;67789;1278;1016368;-62
2024/03/31 13:38:37;;;;;;;;;;;;;;;33.01;19.46;97445.52;67769;1278;1017162;-64
2024/03/31 13:41:39;;;;;;;;;;;;;;;32.86;19.46;97444.99;67847;1278;1016366;-64
2024/03/31 13:44:42;;;;;;;;;;;;;;;32.85;19.56;97443.25;67846;1278;1016267;-64
2024/03/31 13:47:44;;;;;;;;;;;;;;;32.79;20.46;97444.06;67823;1276;1016479;-61
2024/03/31 13:50:47;;;;;;;;;;;;;;;32.57;20.26;97442.93;67905;1276;1016456;-64
2024/03/31 13:53:49;;;;;;;;;;;;;;;32.13;20.00;97434.44;67906;1276;1016832;-64
2024/03/31 13:56:51;;;;;;;;;;;;;;;31.96;20.02;97450.10;67894;1276;1016291;-64
2024/03/31 13:59:54;;;;;;;;;;;;;;;31.76;20.09;97446.01;67929;1276;1016411;-60
2024/03/31 14:02:57;;;;;;;;;;;;;;;31.77;20.06;97443.20;67938;1276;1016394;-64
2024/03/31 14:05:59;;;;;;;;;;;;;;;31.82;19.87;97441.59;67909;1276;1016248;-60
2024/03/31 14:09:04;;;;;;;;;;;;;;;31.73;19.86;97440.91;67932;1276;1016423;-64
2024/03/31 14:12:07;;;;;;;;;;;;;;;31.79;20.10;97434.59;67885;1276;1016851;-63
2024/03/31 14:15:09;;;;;;;;;;;;;;;31.90;20.01;97436.31;67925;1276;1016476;-61
2024/03/31 14:18:11;;;;;;;;;;;;;;;31.91;20.10;97432.36;67968;1276;1016643;-63
2024/03/31 14:21:14;;;;;;;;;;;;;;;31.80;20.12;97430.27;67904;1276;1016415;-64
2024/03/31 14:24:16;;;;;;;;;;;;;;;31.69;20.28;97429.83;67914;1276;1016465;-65
2024/03/31 14:27:19;;;;;;;;;;;;;;;31.74;20.76;97431.31;67928;1276;1016473;-64
2024/03/31 14:30:21;;;;;;;;;;;;;;;31.25;20.61;97431.04;67885;1276;1017975;-64
2024/03/31 14:33:23;;;;;;;;;;;;;;;30.89;20.93;97425.19;67932;1276;1016464;-62
2024/03/31 14:36:26;;;;;;;;;;;;;;;30.71;21.06;97430.46;67944;1276;1016309;-64
2024/03/31 14:39:28;;;;;;;;;;;;;;;30.51;21.47;97443.27;67883;1276;1016751;-64
2024/03/31 14:42:31;;;;;;;;;;;;;;;30.53;21.24;97437.18;67898;1276;1016565;-64
2024/03/31 14:45:33;;;;;;;;;;;;;;;30.50;21.75;97432.02;67879;1276;1016393;-60
2024/03/31 14:48:36;;;;;;;;;;;;;;;30.49;21.58;97427.41;67960;1276;1016637;-64
2024/03/31 14:51:38;;;;;;;;;;;;;;;30.53;21.57;97430.30;67956;1276;1016513;-64
2024/03/31 14:54:40;;;;;;;;;;;;;;;30.57;21.87;97429.05;67889;1276;1016419;-64
2024/03/31 14:57:43;;;;;;;;;;;;;;;30.69;21.75;97424.34;67918;1276;1016482;-63
2024/03/31 15:00:45;;;;;;;;;;;;;;;30.72;21.79;97424.26;67906;1276;1015898;-64
2024/03/31 15:03:48;;;;;;;;;;;;;;;30.73;22.05;97425.55;67949;1276;1016395;-64
2024/03/31 15:06:50;;;;;;;;;;;;;;;30.67;22.33;97422.41;67967;1276;1018568;-64
2024/03/31 15:09:52;;;;;;;;;;;;;;;30.50;22.36;97420.38;67926;1276;1016291;-64
2024/03/31 15:12:55;;;;;;;;;;;;;;;30.43;22.81;97422.80;67898;1276;1016282;-64
2024/03/31 15:15:57;;;;;;;;;;;;;;;30.53;22.94;97420.79;67928;1276;1016508;-64
2024/03/31 15:18:59;;;;;;;;;;;;;;;30.51;22.61;97422.72;67880;1276;1016360;-64
2024/03/31 15:22:02;;;;;;;;;;;;;;;30.33;22.54;97420.90;67926;1276;1016109;-65
2024/03/31 15:25:04;;;;;;;;;;;;;;;30.15;22.86;97419.80;67949;1276;1016785;-63